Latest Weather Observations for Merriwa

IDN60801

Issued at 5:52 pm EST Tuesday 26 May 2020 (issued every 10 minutes, with the page automatically refreshed every 10 minutes)

About weather observations | Map of weather stations | Latest weather observations for NSW | Other Formats
Station Details ID: 061287 Name: MERRIWA (ROSCOMMON) Lat: -32.19 Lon: 150.17 Height: 375.0 m
Data from the previous 72 hours. | See also: Recent months at Merriwa
Date/Time
EST
Temp
°C
App
Temp
°C
Dew
Point
°C
Rel
Hum
%
Delta-T
°C
Wind Press
QNH
hPa
Press
MSL
hPa
Rain since
9am
mm
Dir  Spd
km/h
Gust
km/h
Spd
kts
Gust
kts
26/05:30pm 12.3 10.4 10.4 88 1.0 ESE 11 15 6 8 1021.9 1022.0 0.0
26/05:00pm 13.5 11.4 11.2 86 1.2 ESE 13 17 7 9 1021.7 1021.8 0.0
26/04:30pm 13.6 11.7 11.7 88 1.0 ESE 13 19 7 10 1021.6 1021.7 0.0
26/04:00pm 13.5 9.6 10.9 84 1.4 ESE 22 43 12 23 1021.5 1021.6 0.0
26/03:30pm 15.1 12.5 11.9 81 1.8 ESE 17 24 9 13 1020.8 1020.8 0.0
26/03:00pm 16.0 12.0 11.8 76 2.3 ESE 24 35 13 19 1020.7 1020.7 0.0
26/02:30pm 16.7 13.4 11.6 72 2.8 SE 20 30 11 16 1020.3 1020.3 0.0
26/02:00pm 18.1 15.7 12.5 70 3.2 E 17 20 9 11 1020.3 1020.3 0.0
26/01:30pm 16.3 14.0 11.9 75 2.4 SE 15 22 8 12 1020.5 1020.5 0.0
26/01:00pm 16.6 13.6 12.4 76 2.3 SSE 20 30 11 16 1020.8 1020.8 0.0
26/12:30pm 16.4 14.4 12.6 78 2.1 SE 15 22 8 12 1021.0 1021.0 0.0
26/12:00pm 16.7 15.2 13.0 79 2.1 SSE 13 19 7 10 1021.5 1021.6 0.0
26/11:30am 15.6 14.1 12.0 79 2.0 SE 11 15 6 8 1022.3 1022.4 0.0
26/11:00am 15.4 14.1 11.4 77 2.2 SSE 9 15 5 8 1022.6 1022.7 0.0
26/10:30am 15.0 13.9 12.1 83 1.6 S 9 13 5 7 1022.6 1022.7 0.0
26/10:00am 14.6 14.1 12.5 87 1.2 SE 7 11 4 6 1022.6 1022.7 0.0
26/09:30am 13.9 14.1 11.9 88 1.1 NE 2 6 1 3 1022.5 1022.6 0.0
26/09:00am 13.3 12.8 12.2 93 0.6 ENE 6 7 3 4 1022.3 1022.4 5.4
26/08:30am 12.1 12.7 11.9 99 0.1 CALM 0 0 0 0 1022.1 1022.2 5.4
26/08:00am 10.8 11.0 10.6 99 0.1 CALM 0 0 0 0 1021.9 1022.0 5.4
26/07:30am 9.6 9.5 9.5 99 0.1 CALM 0 0 0 0 1021.7 1021.8 5.4
26/07:00am 9.5 9.4 9.4 99 0.1 CALM 0 4 0 2 1021.6 1021.7 5.4
26/06:30am 8.9 7.4 8.6 98 0.1 NNE 6 6 3 3 1021.2 1021.2 5.4
26/06:00am 8.9 8.6 8.6 98 0.1 CALM 0 0 0 0 1021.0 1021.0 5.4
26/05:30am 8.0 7.4 7.4 96 0.3 CALM 0 0 0 0 1020.7 1020.7 5.4
26/05:00am 8.8 8.1 8.4 97 0.2 NW 2 7 1 4 1020.4 1020.4 5.4
26/04:30am 9.4 9.1 8.6 95 0.4 CALM 0 0 0 0 1020.4 1020.4 5.4
26/04:00am 10.1 8.9 9.5 96 0.3 WSW 6 6 3 3 1020.5 1020.5 5.4
26/03:30am 10.8 9.2 10.2 96 0.3 WNW 9 11 5 6 1020.3 1020.3 5.4
26/03:00am 11.0 10.0 10.4 96 0.3 W 6 9 3 5 1020.3 1020.3 5.4
26/02:30am 10.9 9.9 10.3 96 0.3 W 6 7 3 4 1020.4 1020.4 5.4
26/02:00am 10.9 9.7 10.4 97 0.3 W 7 9 4 5 1020.3 1020.3 5.4
26/01:30am 10.9 9.7 10.3 96 0.3 WSW 7 9 4 5 1020.5 1020.5 5.4
26/01:00am 11.0 10.4 10.5 97 0.3 W 4 6 2 3 1020.5 1020.5 5.4
26/12:30am 10.9 9.7 10.4 97 0.3 WSW 7 9 4 5 1020.5 1020.5 5.4
26/12:00am 11.0 9.9 10.5 97 0.3 W 7 9 4 5 1020.5 1020.5 5.4
 
Date/Time
EST
Temp
°C
App
Temp
°C
Dew
Point
°C
Rel
Hum
%
Delta-T
°C
Wind Press
QNH
hPa
Press
MSL
hPa
Rain since
9am
mm
Dir  Spd
km/h
Gust
km/h
Spd
kts
Gust
kts
25/11:30pm 11.0 9.5 10.5 97 0.3 W 9 11 5 6 1020.5 1020.5 5.4
25/11:00pm 10.9 9.4 10.6 98 0.2 W 9 11 5 6 1020.5 1020.5 5.4
25/10:30pm 10.9 9.4 10.4 97 0.3 W 9 11 5 6 1020.5 1020.5 5.4
25/10:00pm 10.9 9.7 10.4 97 0.3 W 7 9 4 5 1020.4 1020.4 5.2
25/09:30pm 11.0 9.5 10.5 97 0.3 W 9 13 5 7 1020.5 1020.5 4.4
25/09:00pm 11.0 9.5 10.5 97 0.3 WNW 9 15 5 8 1020.4 1020.4 4.4
25/08:30pm 11.0 8.7 10.5 97 0.3 WNW 13 17 7 9 1020.3 1020.3 4.4
25/08:00pm 11.1 9.2 10.5 96 0.3 WNW 11 17 6 9 1020.1 1020.1 4.2
25/07:30pm 11.3 10.1 10.4 94 0.5 W 7 13 4 7 1019.8 1019.9 3.4
25/07:00pm 11.4 9.4 10.3 93 0.6 WNW 11 15 6 8 1019.6 1019.7 1.8
25/06:30pm 11.9 9.9 10.0 88 1.0 WNW 11 15 6 8 1019.3 1019.4 1.4
25/06:00pm 12.2 9.4 10.1 87 1.1 WNW 15 20 8 11 1018.8 1018.8 1.4
25/05:30pm 12.3 9.6 10.5 89 0.9 NW 15 19 8 10 1018.7 1018.7 1.4
25/05:00pm 12.4 10.1 10.6 89 1.0 WNW 13 17 7 9 1018.5 1018.5 1.4
25/04:30pm 12.5 9.6 10.9 90 0.9 NW 17 20 9 11 1018.4 1018.4 1.4
25/04:00pm 13.1 10.6 11.0 87 1.1 WNW 15 20 8 11 1018.2 1018.2 1.4
25/03:30pm 13.4 10.9 10.9 85 1.3 WNW 15 20 8 11 1018.2 1018.2 1.4
25/03:00pm 13.4 10.5 11.1 86 1.2 NW 17 22 9 12 1018.1 1018.1 1.4
25/02:30pm 13.2 11.1 11.3 88 1.0 NW 13 19 7 10 1018.2 1018.2 1.4
25/02:00pm 13.0 10.8 10.9 87 1.1 WNW 13 17 7 9 1018.0 1018.0 1.4
25/01:30pm 12.6 10.5 11.0 90 0.9 WNW 13 20 7 11 1018.1 1018.1 1.4
25/01:00pm 12.4 11.0 11.0 91 0.7 WNW 9 13 5 7 1018.0 1018.0 1.4
25/12:30pm 12.4 10.2 9.2 81 1.6 S 11 15 6 8 1018.3 1018.3 0.4
25/12:00pm 14.5 11.1 7.5 63 3.5 S 15 22 8 12 1018.4 1018.4 0.0
25/11:30am 15.1 12.7 6.9 58 4.1 SW 9 17 5 9 1018.6 1018.6 0.0
25/11:00am 14.8 12.2 6.1 56 4.3 W 9 15 5 8 1018.8 1018.8 0.0
25/10:30am 13.6 10.6 6.2 61 3.6 WSW 11 15 6 8 1018.9 1018.9 0.0
25/10:00am 12.2 9.8 6.9 70 2.6 WSW 9 13 5 7 1018.9 1018.9 0.0
25/09:30am 10.4 8.0 6.9 79 1.7 WSW 9 13 5 7 1019.0 1019.0 0.0
25/09:00am 8.8 6.0 6.8 87 0.9 W 11 15 6 8 1018.7 1018.7 0.0
25/08:30am 7.1 3.4 6.2 94 0.4 WNW 15 20 8 11 1018.8 1018.8 0.0
25/08:00am 7.6 5.7 7.6 100 0.0 WSW 7 13 4 7 1018.9 1018.9 0.0
25/07:30am 5.5 3.7 5.4 99 0.0 WNW 4 7 2 4 1018.8 1018.8 0.0
25/07:00am 3.5 0.4 3.4 99 0.0 W 9 11 5 6 1018.4 1018.4 0.0
25/06:30am 2.6 1.0 2.3 98 0.1 CALM 0 0 0 0 1018.1 1018.1 0.0
25/06:00am 1.9 -1.0 1.6 98 0.1 W 6 7 3 4 1017.8 1017.8 0.0
25/05:30am 1.6 -1.3 1.2 97 0.2 NNE 6 7 3 4 1017.0 1017.1 0.0
25/05:00am 2.7 1.1 2.3 97 0.2 CALM 0 0 0 0 1016.8 1016.8 0.0
25/04:30am 2.6 0.9 2.0 96 0.2 CALM 0 2 0 1 1016.7 1016.7 0.0
25/04:00am 3.2 0.5 2.6 96 0.2 W 6 7 3 4 1016.5 1016.5 0.0
25/03:30am 4.2 1.7 3.8 97 0.2 W 6 6 3 3 1016.5 1016.5 0.0
25/03:00am 4.4 2.3 4.0 97 0.2 W 4 6 2 3 1016.3 1016.3 0.0
25/02:30am 4.6 2.2 4.2 97 0.2 W 6 7 3 4 1016.4 1016.4 0.0
25/02:00am 4.0 1.4 3.4 96 0.3 WSW 6 7 3 4 1016.3 1016.3 0.0
25/01:30am 4.1 0.9 3.2 94 0.4 WSW 9 11 5 6 1016.3 1016.3 0.0
25/01:00am 5.0 2.6 4.1 94 0.4 W 6 7 3 4 1016.3 1016.3 0.0
25/12:30am 6.3 4.5 5.3 93 0.4 NNE 4 6 2 3 1016.5 1016.5 0.0
25/12:00am 6.6 4.4 5.1 90 0.7 E 6 7 3 4 1016.5 1016.5 0.0
 
Date/Time
EST
Temp
°C
App
Temp
°C
Dew
Point
°C
Rel
Hum
%
Delta-T
°C
Wind Press
QNH
hPa
Press
MSL
hPa
Rain since
9am
mm
Dir  Spd
km/h
Gust
km/h
Spd
kts
Gust
kts
24/11:30pm 8.3 6.0 7.4 94 0.4 SSW 9 11 5 6 1016.4 1016.4 0.0
24/11:00pm 7.3 5.4 6.6 95 0.3 WSW 6 7 3 4 1016.3 1016.3 0.0
24/10:30pm 7.3 4.8 6.7 96 0.3 WNW 9 9 5 5 1016.4 1016.4 0.0
24/10:00pm 7.9 6.2 7.5 97 0.2 S 6 9 3 5 1016.2 1016.2 0.0
24/09:30pm 8.4 6.1 7.6 95 0.4 SSW 9 11 5 6 1016.1 1016.1 0.0
24/09:00pm 8.5 6.6 6.8 89 0.8 NW 6 7 3 4 1015.8 1015.8 0.0
24/08:30pm 10.6 9.1 8.4 86 1.1 N 6 7 3 4 1015.7 1015.7 0.0
24/08:00pm 11.6 10.1 9.3 86 1.2 N 7 9 4 5 1015.6 1015.6 0.0
24/07:30pm 12.1 10.9 9.5 84 1.3 NE 6 9 3 5 1015.5 1015.5 0.0
24/07:00pm 12.6 11.4 9.6 82 1.6 E 6 9 3 5 1015.3 1015.3 0.0
24/06:30pm 12.9 11.7 9.5 80 1.8 NE 6 9 3 5 1014.9 1014.9 0.0
24/06:00pm 13.3 12.7 9.0 75 2.2 NW 2 6 1 3 1014.5 1014.4 0.0
24/05:30pm 13.5 12.1 9.0 74 2.3 WNW 6 7 3 4 1014.0 1014.0 0.0
24/05:00pm 13.9 12.0 8.9 72 2.6 WNW 9 13 5 7 1013.6 1013.6 0.0
24/04:30pm 14.4 12.0 8.8 69 2.9 WNW 11 15 6 8 1013.3 1013.3 0.0
24/04:00pm 14.9 12.9 8.6 66 3.3 W 9 13 5 7 1013.0 1013.0 0.0
24/03:30pm 15.3 12.9 8.5 64 3.5 W 11 17 6 9 1012.7 1012.7 0.0
24/03:00pm 15.6 12.8 8.6 63 3.6 WNW 13 19 7 10 1012.6 1012.6 0.0
24/02:30pm 16.2 13.4 8.7 61 3.9 W 13 20 7 11 1012.5 1012.5 0.0
24/02:00pm 16.0 13.1 8.0 59 4.1 W 13 19 7 10 1012.6 1012.6 0.0
24/01:30pm 16.3 13.5 8.5 60 4.1 W 13 22 7 12 1012.6 1012.6 0.0
24/01:00pm 15.3 11.8 7.3 59 4.0 WNW 15 20 8 11 1012.8 1012.8 0.0
24/12:30pm 15.7 12.7 9.4 66 3.3 W 15 20 8 11 1013.0 1013.0 0.0
24/12:00pm 15.1 12.3 9.9 71 2.8 W 15 22 8 12 1013.4 1013.4 0.0
24/11:30am 13.9 10.4 8.9 72 2.6 WNW 17 24 9 13 1013.9 1013.9 0.0
24/11:00am 13.0 9.6 9.3 78 1.9 WNW 17 20 9 11 1014.0 1014.0 0.0
24/10:30am 12.4 9.2 10.1 86 1.2 WNW 17 20 9 11 1014.1 1014.1 0.0
24/10:00am 11.4 8.6 10.1 92 0.7 WNW 15 20 8 11 1014.0 1014.0 0.0
24/09:30am 10.3 6.9 9.2 93 0.6 WNW 17 20 9 11 1013.9 1013.9 0.0
24/09:00am 9.6 6.9 8.8 95 0.4 WNW 13 17 7 9 1013.6 1013.6 3.0
24/08:30am 8.9 5.7 8.3 96 0.3 WNW 15 19 8 10 1013.5 1013.5 3.0
24/08:00am 8.5 5.5 7.7 95 0.4 WNW 13 19 7 10 1013.3 1013.3 2.8
24/07:30am 8.4 5.4 7.6 95 0.4 WNW 13 19 7 10 1013.1 1013.1 2.8
24/07:00am 8.1 5.1 7.5 96 0.3 WNW 13 17 7 9 1012.6 1012.6 2.8
24/06:30am 8.0 4.5 7.2 95 0.4 WNW 15 20 8 11 1012.3 1012.2 2.8
24/06:00am 7.9 4.0 7.3 96 0.3 NW 17 20 9 11 1012.0 1011.9 2.8
24/05:30am 8.0 4.2 7.4 96 0.3 NW 17 24 9 13 1011.8 1011.7 2.8
24/05:00am 8.0 4.2 7.6 97 0.2 NW 17 22 9 12 1011.5 1011.5 2.8
24/04:30am 8.1 3.9 7.5 96 0.3 WNW 19 24 10 13 1011.4 1011.4 2.8
24/04:00am 8.1 3.9 7.5 96 0.3 WNW 19 26 10 14 1011.4 1011.4 2.8
24/03:30am 8.2 3.8 7.4 95 0.4 NW 20 26 11 14 1011.3 1011.3 2.8
24/03:00am 8.2 4.0 7.4 95 0.4 NW 19 24 10 13 1011.3 1011.3 2.8
24/02:30am 8.1 4.3 7.5 96 0.3 NW 17 22 9 12 1011.3 1011.3 2.8
24/02:00am 8.3 4.2 7.7 96 0.3 NW 19 24 10 13 1011.7 1011.6 2.8
24/01:30am 8.5 4.4 7.9 96 0.3 NW 19 26 10 14 1011.8 1011.7 2.8
24/01:00am 8.5 4.5 8.1 97 0.2 WNW 19 24 10 13 1011.8 1011.7 2.6
24/12:30am 8.5 4.8 8.1 97 0.2 WNW 17 24 9 13 1011.9 1011.8 2.6
24/12:00am 8.5 4.8 8.1 97 0.2 WNW 17 24 9 13 1012.1 1012.0 2.2
 
Date/Time
EST
Temp
°C
App
Temp
°C
Dew
Point
°C
Rel
Hum
%
Delta-T
°C
Wind Press
QNH
hPa
Press
MSL
hPa
Rain since
9am
mm
Dir  Spd
km/h
Gust
km/h
Spd
kts
Gust
kts
23/11:30pm 8.6 5.0 8.2 97 0.2 WNW 17 22 9 12 1012.2 1012.1 1.8
23/11:00pm 8.5 4.8 7.9 96 0.3 WNW 17 22 9 12 1012.4 1012.3 1.2
23/10:30pm 8.7 5.0 8.1 96 0.3 WNW 17 20 9 11 1012.4 1012.3 1.0
23/10:00pm 8.7 5.4 7.9 95 0.4 WNW 15 19 8 10 1012.4 1012.3 0.8
23/09:30pm 8.7 4.6 7.8 94 0.4 WNW 19 22 10 12 1012.3 1012.2 0.6
23/09:00pm 8.9 4.8 7.8 93 0.5 WNW 19 22 10 12 1012.4 1012.3 0.4
23/08:30pm 9.1 5.4 8.0 93 0.5 WNW 17 28 9 15 1012.1 1012.0 0.2
23/08:00pm 9.1 5.4 8.0 93 0.5 NW 17 20 9 11 1012.0 1011.9 0.0
23/07:30pm 9.3 5.5 7.7 90 0.8 NW 17 22 9 12 1011.7 1011.6 0.0
23/07:00pm 9.6 5.8 7.7 88 0.9 WNW 17 20 9 11 1011.5 1011.5 0.0
23/06:30pm 10.6 6.7 6.9 78 1.8 W 17 24 9 13 1011.1 1011.1 0.0
23/06:00pm 10.7 6.7 6.5 75 2.0 WNW 17 22 9 12 1010.7 1010.7 0.0

Other formats

Comma delimited format used in spreadsheet applications
http://www.bom.gov.au/fwo/IDN60801/IDN60801.95754.axf

JavaScript Object Notation format (JSON) in row-major order
http://www.bom.gov.au/fwo/IDN60801/IDN60801.95754.json

Data quality

Most of these data are generated automatically and are frequently updated. Quality checks on data are not normally performed. It is possible for incorrect values to appear. Refer to information at About Latest Weather Observations and please check the disclaimer before using these data.